QFA789 YSSY-YMML
Flight info
| Callsign | QFA789 |
|---|---|
| Flight time | N/A |
| Altitude | 38000 |
| Route | KEVIN DCT WOL H65 LEECE Q29 ML |
| Aircraft | B738/M-SDE2E3FGHIRWXY/LB1 |
Departure
| Time | 2026-05-08 00:36 |
|---|---|
| Airport | Sydney Kingsford Smith International Airport (YSSY) |
Arrival
| Time | N/A |
|---|---|
| Airport | Melbourne Airport (YMML) |
| Time | Latitude | Longitude | Altitude | Speed | Heading |
|---|---|---|---|---|---|
| 2026-05-07 23:55 | -33.93125 | 151.17756 | 14 ft | 0 kts | 191° |
| 2026-05-08 00:14 | -33.93124 | 151.17756 | 29 ft | 2 kts | 191° |
| 2026-05-08 00:14 | -33.93100 | 151.17763 | 29 ft | 4 kts | 200° |
| 2026-05-08 00:14 | -33.93076 | 151.17777 | 29 ft | 4 kts | 220° |
| 2026-05-08 00:15 | -33.93062 | 151.17801 | 29 ft | 4 kts | 269° |
| 2026-05-08 00:15 | -33.93062 | 151.17809 | 29 ft | 1 kts | 280° |
| 2026-05-08 00:20 | -33.93062 | 151.17807 | 29 ft | 1 kts | 280° |
| 2026-05-08 00:20 | -33.93059 | 151.17789 | 29 ft | 4 kts | 283° |
| 2026-05-08 00:20 | -33.93049 | 151.17750 | 29 ft | 6 kts | 289° |
| 2026-05-08 00:20 | -33.93031 | 151.17702 | 29 ft | 6 kts | 296° |
| 2026-05-08 00:21 | -33.93015 | 151.17652 | 29 ft | 6 kts | 283° |
| 2026-05-08 00:21 | -33.93009 | 151.17607 | 29 ft | 3 kts | 278° |
| 2026-05-08 00:21 | -33.93009 | 151.17578 | 29 ft | 4 kts | 255° |
| 2026-05-08 00:21 | -33.93061 | 151.17529 | 29 ft | 13 kts | 204° |
| 2026-05-08 00:22 | -33.93150 | 151.17531 | 29 ft | 13 kts | 168° |
| 2026-05-08 00:22 | -33.93239 | 151.17555 | 29 ft | 13 kts | 164° |
| 2026-05-08 00:22 | -33.93330 | 151.17579 | 29 ft | 12 kts | 169° |
| 2026-05-08 00:22 | -33.93412 | 151.17597 | 29 ft | 12 kts | 176° |
| 2026-05-08 00:23 | -33.93500 | 151.17588 | 29 ft | 14 kts | 170° |
| 2026-05-08 00:23 | -33.93608 | 151.17620 | 29 ft | 17 kts | 163° |
| 2026-05-08 00:23 | -33.93678 | 151.17659 | 29 ft | 6 kts | 146° |
| 2026-05-08 00:23 | -33.93718 | 151.17680 | 29 ft | 7 kts | 165° |
| 2026-05-08 00:24 | -33.93774 | 151.17693 | 29 ft | 8 kts | 171° |
| 2026-05-08 00:24 | -33.93829 | 151.17710 | 29 ft | 8 kts | 137° |
| 2026-05-08 00:24 | -33.93874 | 151.17765 | 29 ft | 12 kts | 144° |
| 2026-05-08 00:24 | -33.93971 | 151.17798 | 28 ft | 16 kts | 168° |
| 2026-05-08 00:25 | -33.94080 | 151.17825 | 28 ft | 16 kts | 168° |
| 2026-05-08 00:25 | -33.94183 | 151.17851 | 29 ft | 15 kts | 168° |
| 2026-05-08 00:25 | -33.94283 | 151.17876 | 29 ft | 14 kts | 168° |
| 2026-05-08 00:25 | -33.94378 | 151.17903 | 29 ft | 14 kts | 166° |
| 2026-05-08 00:26 | -33.94468 | 151.17898 | 29 ft | 13 kts | 209° |
| 2026-05-08 00:26 | -33.94569 | 151.17894 | 29 ft | 19 kts | 167° |
| 2026-05-08 00:26 | -33.94715 | 151.17931 | 29 ft | 23 kts | 167° |
| 2026-05-08 00:26 | -33.94872 | 151.17972 | 29 ft | 23 kts | 167° |
| 2026-05-08 00:27 | -33.95023 | 151.18011 | 29 ft | 21 kts | 167° |
| 2026-05-08 00:27 | -33.95094 | 151.18130 | 29 ft | 20 kts | 83° |
| 2026-05-08 00:27 | -33.95069 | 151.18285 | 29 ft | 10 kts | 78° |
| 2026-05-08 00:27 | -33.95053 | 151.18364 | 29 ft | 9 kts | 76° |
| 2026-05-08 00:28 | -33.95046 | 151.18402 | 28 ft | 0 kts | 78° |
| 2026-05-08 00:28 | -33.95046 | 151.18403 | 28 ft | 2 kts | 78° |
| 2026-05-08 00:28 | -33.95035 | 151.18468 | 29 ft | 10 kts | 78° |
| 2026-05-08 00:29 | -33.95021 | 151.18546 | 29 ft | 9 kts | 78° |
| 2026-05-08 00:29 | -33.95008 | 151.18622 | 29 ft | 9 kts | 76° |
| 2026-05-08 00:29 | -33.94992 | 151.18696 | 28 ft | 9 kts | 75° |
| 2026-05-08 00:29 | -33.94975 | 151.18776 | 29 ft | 11 kts | 76° |
| 2026-05-08 00:30 | -33.94986 | 151.18831 | 26 ft | 7 kts | 153° |
| 2026-05-08 00:30 | -33.95013 | 151.18840 | 26 ft | 0 kts | 168° |
| 2026-05-08 00:30 | -33.95014 | 151.18840 | 25 ft | 1 kts | 171° |
| 2026-05-08 00:30 | -33.95024 | 151.18838 | 24 ft | 2 kts | 190° |
| 2026-05-08 00:31 | -33.95047 | 151.18811 | 24 ft | 12 kts | 246° |
| 2026-05-08 00:31 | -33.95063 | 151.18716 | 28 ft | 11 kts | 259° |
| 2026-05-08 00:31 | -33.95081 | 151.18613 | 29 ft | 8 kts | 257° |
| 2026-05-08 00:31 | -33.95106 | 151.18564 | 29 ft | 4 kts | 183° |
| 2026-05-08 00:32 | -33.95154 | 151.18593 | 29 ft | 4 kts | 143° |
| 2026-05-08 00:32 | -33.95192 | 151.18634 | 29 ft | 4 kts | 138° |
| 2026-05-08 00:32 | -33.95233 | 151.18669 | 29 ft | 3 kts | 147° |
| 2026-05-08 00:32 | -33.95278 | 151.18702 | 29 ft | 6 kts | 152° |
| 2026-05-08 00:33 | -33.95433 | 151.18751 | 29 ft | 13 kts | 171° |
| 2026-05-08 00:33 | -33.95609 | 151.18794 | 29 ft | 13 kts | 168° |
| 2026-05-08 00:33 | -33.95774 | 151.18838 | 29 ft | 12 kts | 168° |
| 2026-05-08 00:33 | -33.95910 | 151.18873 | 29 ft | 17 kts | 168° |
| 2026-05-08 00:34 | -33.96028 | 151.18904 | 29 ft | 19 kts | 168° |
| 2026-05-08 00:34 | -33.96173 | 151.18941 | 29 ft | 25 kts | 168° |
| 2026-05-08 00:34 | -33.96565 | 151.19043 | 29 ft | 23 kts | 167° |
| 2026-05-08 00:34 | -33.96851 | 151.19074 | 29 ft | 22 kts | 173° |
| 2026-05-08 00:35 | -33.97046 | 151.19127 | 29 ft | 21 kts | 167° |
| 2026-05-08 00:35 | -33.97119 | 151.19235 | 28 ft | 19 kts | 75° |
| 2026-05-08 00:35 | -33.97056 | 151.19371 | 27 ft | 18 kts | 9° |
| 2026-05-08 00:35 | -33.96919 | 151.19337 | 23 ft | 36 kts | 349° |
| 2026-05-08 00:36 | -33.96368 | 151.19187 | 26 ft | 124 kts | 347° |
| 2026-05-08 00:36 | -33.95299 | 151.18891 | 198 ft | 183 kts | 341° |
| 2026-05-08 00:36 | -33.94048 | 151.18585 | 1392 ft | 181 kts | 347° |
| 2026-05-08 00:36 | -33.92749 | 151.18892 | 2346 ft | 212 kts | 26° |
| 2026-05-08 00:37 | -33.91766 | 151.20263 | 3117 ft | 225 kts | 73° |
| 2026-05-08 00:37 | -33.91711 | 151.22085 | 3790 ft | 210 kts | 120° |
| 2026-05-08 00:37 | -33.92483 | 151.23500 | 4605 ft | 202 kts | 131° |
| 2026-05-08 00:38 | -33.93768 | 151.26606 | 4982 ft | 211 kts | 113° |
| 2026-05-08 00:38 | -33.93851 | 151.28461 | 5039 ft | 239 kts | 93° |
| 2026-05-08 00:38 | -33.93769 | 151.30608 | 5011 ft | 273 kts | 93° |
| 2026-05-08 00:38 | -33.93679 | 151.32942 | 5010 ft | 281 kts | 92° |
| 2026-05-08 00:39 | -33.93588 | 151.35297 | 5003 ft | 282 kts | 92° |
| 2026-05-08 00:39 | -33.93503 | 151.37659 | 5187 ft | 284 kts | 93° |
| 2026-05-08 00:39 | -33.93425 | 151.40018 | 6027 ft | 286 kts | 93° |
| 2026-05-08 00:39 | -33.93347 | 151.42448 | 6966 ft | 289 kts | 93° |
| 2026-05-08 00:40 | -33.93272 | 151.44878 | 7710 ft | 298 kts | 92° |
| 2026-05-08 00:40 | -33.93194 | 151.47392 | 8537 ft | 304 kts | 92° |
| 2026-05-08 00:40 | -33.93293 | 151.49932 | 9314 ft | 304 kts | 110° |
| 2026-05-08 00:40 | -33.94243 | 151.52135 | 10111 ft | 294 kts | 138° |
| 2026-05-08 00:41 | -33.95804 | 151.53649 | 10898 ft | 284 kts | 160° |
| 2026-05-08 00:41 | -33.97704 | 151.54270 | 11280 ft | 290 kts | 185° |
| 2026-05-08 00:41 | -33.99703 | 151.53771 | 11488 ft | 303 kts | 207° |
| 2026-05-08 00:41 | -34.01560 | 151.52410 | 11674 ft | 323 kts | 218° |
| 2026-05-08 00:42 | -34.03268 | 151.50558 | 12042 ft | 336 kts | 227° |
| 2026-05-08 00:42 | -34.04854 | 151.48459 | 12768 ft | 339 kts | 229° |
| 2026-05-08 00:42 | -34.06420 | 151.46326 | 13658 ft | 338 kts | 229° |
| 2026-05-08 00:42 | -34.07975 | 151.44195 | 14438 ft | 339 kts | 229° |
| 2026-05-08 00:43 | -34.09541 | 151.42054 | 15097 ft | 342 kts | 229° |
| 2026-05-08 00:43 | -34.11127 | 151.39894 | 15754 ft | 345 kts | 228° |
| 2026-05-08 00:43 | -34.12727 | 151.37722 | 16418 ft | 347 kts | 228° |
| 2026-05-08 00:43 | -34.14342 | 151.35533 | 17073 ft | 350 kts | 228° |
| 2026-05-08 00:44 | -34.15973 | 151.33327 | 17724 ft | 352 kts | 228° |
| 2026-05-08 00:44 | -34.17586 | 151.31145 | 18373 ft | 354 kts | 227° |
| 2026-05-08 00:44 | -34.19231 | 151.28919 | 18907 ft | 357 kts | 227° |
| 2026-05-08 00:44 | -34.20893 | 151.26671 | 19424 ft | 360 kts | 227° |
| 2026-05-08 00:45 | -34.22562 | 151.24410 | 19966 ft | 362 kts | 227° |
| 2026-05-08 00:45 | -34.24244 | 151.22132 | 20494 ft | 364 kts | 227° |
| 2026-05-08 00:45 | -34.25936 | 151.19839 | 21016 ft | 366 kts | 227° |
| 2026-05-08 00:45 | -34.27637 | 151.17532 | 21516 ft | 369 kts | 227° |
| 2026-05-08 00:46 | -34.29348 | 151.15209 | 22014 ft | 371 kts | 227° |
| 2026-05-08 00:46 | -34.31074 | 151.12864 | 22481 ft | 374 kts | 227° |
| 2026-05-08 00:46 | -34.32806 | 151.10510 | 22958 ft | 376 kts | 227° |
| 2026-05-08 00:46 | -34.34551 | 151.08137 | 23412 ft | 379 kts | 227° |
| 2026-05-08 00:47 | -34.36306 | 151.05749 | 23805 ft | 381 kts | 227° |
| 2026-05-08 00:47 | -34.38077 | 151.03337 | 24165 ft | 384 kts | 227° |
| 2026-05-08 00:47 | -34.39850 | 151.00919 | 24540 ft | 386 kts | 227° |
| 2026-05-08 00:47 | -34.41639 | 150.98479 | 24922 ft | 387 kts | 227° |
| 2026-05-08 00:48 | -34.43406 | 150.96067 | 25266 ft | 389 kts | 227° |
| 2026-05-08 00:48 | -34.45217 | 150.93594 | 25614 ft | 391 kts | 227° |
| 2026-05-08 00:48 | -34.47031 | 150.91114 | 25962 ft | 393 kts | 227° |
| 2026-05-08 00:48 | -34.48850 | 150.88625 | 26286 ft | 395 kts | 227° |
| 2026-05-08 00:49 | -34.50677 | 150.86124 | 26591 ft | 398 kts | 227° |
| 2026-05-08 00:49 | -34.52518 | 150.83604 | 26894 ft | 400 kts | 227° |
| 2026-05-08 00:49 | -34.54364 | 150.81074 | 27206 ft | 401 kts | 227° |
| 2026-05-08 00:49 | -34.56200 | 150.78515 | 27553 ft | 402 kts | 229° |
| 2026-05-08 00:50 | -34.57921 | 150.75833 | 27982 ft | 401 kts | 232° |
| 2026-05-08 00:50 | -34.58733 | 150.74495 | 28209 ft | 401 kts | 232° |
| 2026-05-08 00:50 | -34.59595 | 150.73047 | 28476 ft | 399 kts | 232° |
| 2026-05-08 00:50 | -34.59992 | 150.72373 | 28600 ft | 399 kts | 233° |
| 2026-05-08 00:51 | -34.61458 | 150.69879 | 29036 ft | 396 kts | 232° |
| 2026-05-08 00:51 | -34.63058 | 150.67160 | 29479 ft | 396 kts | 232° |